Flight Track Log - Related Links

Times and Time Zones

All times are in EDT time to prevent confusion due to time zone crossing. See the N682RW flight status page for this flight to view local times or setup timezone preferences in your user account.

Time Position Orientation Groundspeed Altitude Reporting Facility
EDT Latitude Longitude Course Direction KTS MPH feet Rate Location/Type
Mon 12:14:15 PM 47.4864 -122.2631 139° Southeast 243 280 1,800  Level Seattle Center
Mon 12:15:16 PM 47.4372 -122.1997 139° Southeast 245 282 5,800 4,048 Climbing Seattle Center
Mon 12:15:38 PM 47.4331 -122.1444 96° East 272 313 7,400 3,541 Climbing Seattle Center
Mon 12:16:17 PM 47.4314 -122.0892 93° East 280 322 9,400 3,840 Climbing Seattle Center
Mon 12:17:18 PM 47.4358 -121.9500 87° East 291 335 13,800 3,818 Climbing Seattle Center
Mon 12:18:18 PM 47.4361 -121.8175 90° East 329 379 17,100 2,777 Climbing Seattle Center
Mon 12:19:19 PM 47.4297 -121.6722 94° East 362 417 19,400 2,557 Climbing Seattle Center
Mon 12:20:20 PM 47.4342 -121.5197 87° East 376 433 22,300 2,656 Climbing Seattle Center
Mon 12:21:21 PM 47.4369 -121.3611 88° East 389 448 24,800 2,115 Climbing Seattle Center
Mon 12:22:22 PM 47.4392 -121.1969 89° East 401 461 26,600 1,672 Climbing Seattle Center
Mon 12:23:23 PM 47.4406 -121.0281 89° East 413 475 28,200 1,537 Climbing Seattle Center
Mon 12:24:23 PM 47.4431 -120.8206 89° East 434 499 29,700 1,339 Climbing Seattle Center
Mon 12:25:24 PM 47.4444 -120.6658 89° East 444 511 30,900 1,475 Climbing Seattle Center
Mon 12:26:25 PM 47.4450 -120.4831 90° East 446 513 32,700 1,377 Climbing Seattle Center
Mon 12:27:26 PM 47.4464 -120.2647 89° East 443 510 33,700 984 Climbing Seattle Center
Mon 12:28:27 PM 47.4475 -120.0792 89° East 452 520 34,700 885 Climbing Seattle Center
Mon 12:29:28 PM 47.4472 -119.8919 90° East 456 525 35,500 787 Climbing Seattle Center
Mon 12:30:29 PM 47.4478 -119.7031 90° East 463 533 36,300 744 Climbing Seattle Center
Mon 12:31:29 PM 47.4475 -119.5153 90° East 460 529 37,000 347 Climbing Seattle Center
Mon 12:32:30 PM 47.4478 -119.3242 90° East 466 536 37,000  Level Seattle Center
Mon 12:33:31 PM 47.4458 -119.1300 91° East 471 542 37,000  Level Seattle Center
Mon 12:34:32 PM 47.4444 -118.9381 91° East 471 542 37,000  Level Seattle Center
Mon 12:35:33 PM 47.4439 -118.7444 90° East 473 544 37,000  Level Seattle Center
Mon 12:36:34 PM 47.4419 -118.5497 91° East 475 547 37,000  Level Seattle Center
Mon 12:37:35 PM 47.4394 -118.3561 91° East 473 544 37,000  Level Seattle Center
Mon 12:38:35 PM 47.4367 -118.1631 91° East 474 545 37,000  Level Seattle Center
Mon 12:39:36 PM 47.4342 -117.9700 91° East 472 543 37,000  Level Seattle Center
Mon 12:40:37 PM 47.4317 -117.7378 91° East 474 545 37,000  Level Seattle Center
Mon 12:41:38 PM 47.4308 -117.5447 90° East 474 545 37,000  Level Seattle Center
Mon 12:42:39 PM 47.4267 -117.3533 92° East 473 544 37,000  Level Seattle Center
Mon 12:43:40 PM 47.4219 -117.1647 92° East 467 537 37,000  Level Seattle Center
Mon 12:44:41 PM 47.4183 -116.9772 92° East 470 541 37,000  Level Seattle Center
Mon 12:45:42 PM 47.4139 -116.7867 92° East 472 543 37,000  Level Seattle Center
Mon 12:46:43 PM 47.4086 -116.5956 92° East 472 543 37,000  Level Seattle Center
Mon 12:47:44 PM 47.4033 -116.4017 92° East 475 547 37,000  Level Seattle Center
Mon 12:48:45 PM 47.3958 -116.1697 93° East 474 545 37,000  Level Seattle Center
Mon 12:49:45 PM 47.3897 -115.9778 93° East 470 541 37,000  Level Seattle Center
Mon 12:50:46 PM 47.3836 -115.7864 93° East 470 541 37,000  Level Seattle Center
Mon 12:51:47 PM 47.3781 -115.6153 93° East 470 541 37,000  Level Seattle Center
Mon 12:52:48 PM 47.3711 -115.4242 93° East 469 540 37,000  Level Seattle Center
Mon 12:53:49 PM 47.3625 -115.1947 93° East 470 541 37,000  Level Seattle Center
Mon 12:54:50 PM 47.3542 -115.0033 94° East 470 541 37,000  Level Seattle Center
Mon 12:55:51 PM 47.3475 -114.8150 93° East 466 536 37,000  Level Seattle Center
Mon 12:56:52 PM 47.3392 -114.6239 94° East 469 540 37,000  Level Seattle Center
Mon 12:57:28 PM 47.3322 -114.5081 95° East 470 541 37,000  Level Salt Lake Center
Mon 12:58:30 PM 47.3236 -114.3189 94° East 469 540 37,000  Level Salt Lake Center
Mon 12:59:31 PM 47.3147 -114.1314 94° East 464 534 37,000  Level Salt Lake Center
Mon 01:00:33 PM 47.3058 -113.9428 94° East 464 534 37,000  Level Salt Lake Center
Mon 01:01:35 PM 47.2942 -113.7183 94° East 464 534 37,000  Level Salt Lake Center
Mon 01:02:36 PM 47.2847 -113.5322 94° East 460 529 37,000  Level Salt Lake Center
Mon 01:03:38 PM 47.2742 -113.3464 95° East 459 528 37,000  Level Salt Lake Center
Mon 01:04:40 PM 47.2633 -113.1544 95° East 459 528 37,000  Level Salt Lake Center
Mon 01:05:41 PM 47.2517 -112.9714 95° East 464 534 37,000  Level Salt Lake Center
Mon 01:06:42 PM 47.2428 -112.7783 94° East 466 536 37,000  Level Salt Lake Center
Mon 01:07:44 PM 47.2306 -112.5931 95° East 459 528 37,000  Level Salt Lake Center
Mon 01:08:46 PM 47.2192 -112.4075 95° East 458 527 37,000  Level Salt Lake Center
Mon 01:09:47 PM 47.2053 -112.1853 95° East 457 526 37,000  Level Salt Lake Center
Mon 01:10:49 PM 47.1922 -112.0006 96° East 457 526 37,000  Level Salt Lake Center
Mon 01:11:50 PM 47.1811 -111.8161 95° East 458 527 37,000  Level Salt Lake Center
Mon 01:12:51 PM 47.1672 -111.6317 96° East 458 527 37,000  Level Salt Lake Center
Mon 01:13:53 PM 47.1539 -111.4486 96° East 457 526 37,000  Level Salt Lake Center
Mon 01:14:54 PM 47.1419 -111.2644 95° East 458 527 37,000  Level Salt Lake Center
Mon 01:15:56 PM 47.1283 -111.0822 96° East 456 525 37,000  Level Salt Lake Center
Mon 01:16:57 PM 47.1111 -110.8617 96° East 457 526 37,000  Level Salt Lake Center
Mon 01:17:58 PM 47.0964 -110.6761 97° East 461 531 37,000  Level Salt Lake Center
Mon 01:19:00 PM 47.0797 -110.4933 98° East 457 526 37,000  Level Salt Lake Center
Mon 01:20:01 PM 47.0644 -110.3094 97° East 456 525 37,000  Level Salt Lake Center
Mon 01:21:03 PM 47.0500 -110.1244 96° East 458 527 37,000  Level Salt Lake Center
Mon 01:22:04 PM 47.0336 -109.9381 97° East 464 534 37,000  Level Salt Lake Center
Mon 01:23:05 PM 47.0183 -109.7517 97° East 463 533 37,000  Level Salt Lake Center
Mon 01:24:07 PM 47.0050 -109.5611 96° East 470 541 37,000  Level Salt Lake Center
Mon 01:25:08 PM 46.9831 -109.3386 98° East 465 535 37,000  Level Salt Lake Center
Mon 01:26:10 PM 46.9658 -109.1522 98° East 463 533 37,000  Level Salt Lake Center
Mon 01:27:11 PM 46.9467 -108.9694 99° East 465 535 37,000  Level Salt Lake Center
Mon 01:28:12 PM 46.9264 -108.7619 98° East 463 533 37,000  Level Salt Lake Center
Mon 01:29:14 PM 46.9092 -108.5825 98° East 462 532 37,000  Level Salt Lake Center
Mon 01:30:15 PM 46.8914 -108.4017 98° East 465 535 37,000  Level Salt Lake Center
Mon 01:31:17 PM 46.8708 -108.1903 98° East 469 540 37,000  Level Salt Lake Center
Mon 01:32:18 PM 46.8531 -108.0081 98° East 471 542 37,000  Level Salt Lake Center
Mon 01:33:20 PM 46.8306 -107.7981 99° East 470 541 37,000  Level Salt Lake Center
Mon 01:34:21 PM 46.8117 -107.6197 99° East 466 536 37,000  Level Salt Lake Center
Mon 01:35:23 PM 46.7925 -107.4386 99° East 469 540 37,000  Level Salt Lake Center
Mon 01:36:24 PM 46.7694 -107.2317 99° East 465 535 37,000  Level Salt Lake Center
Mon 01:37:26 PM 46.7497 -107.0517 99° East 467 537 37,000  Level Salt Lake Center
Mon 01:38:27 PM 46.7256 -106.8422 99° East 470 541 37,000  Level Salt Lake Center
Mon 01:39:29 PM 46.7042 -106.6611 100° East 471 542 37,000  Level Salt Lake Center
Mon 01:40:30 PM 46.6833 -106.4819 100° East 471 542 37,000  Level Salt Lake Center
Mon 01:41:32 PM 46.6583 -106.2733 100° East 470 541 37,000  Level Salt Lake Center
Mon 01:42:33 PM 46.6361 -106.0944 100° East 469 540 37,000  Level Salt Lake Center
Mon 01:43:35 PM 46.6100 -105.8856 100° East 469 540 37,000  Level Salt Lake Center
Mon 01:44:36 PM 46.5883 -105.7069 100° East 470 541 37,000  Level Salt Lake Center
Mon 01:45:38 PM 46.5650 -105.5292 101° East 469 540 37,000  Level Salt Lake Center
Mon 01:46:40 PM 46.5389 -105.3214 100° East 468 539 37,000  Level Salt Lake Center
Mon 01:47:41 PM 46.5153 -105.1422 101° East 469 540 37,000  Level Salt Lake Center
Mon 01:48:43 PM 46.4892 -104.9347 100° East 470 541 37,000  Level Salt Lake Center
Mon 01:49:44 PM 46.4678 -104.7722 101° East 469 540 37,000  Level Salt Lake Center
Mon 01:50:46 PM 46.4431 -104.5864 101° East 470 541 37,000  Level Salt Lake Center
Mon 01:51:48 PM 46.4181 -104.3989 101° East 474 545 37,000  Level Salt Lake Center
Mon 01:52:49 PM 46.3872 -104.1756 101° East 475 547 37,000  Level Salt Lake Center
Mon 01:53:51 PM 46.3600 -103.9872 102° East 478 550 37,000  Level Salt Lake Center
Mon 01:54:52 PM 46.3347 -103.7994 101° East 479 551 37,000  Level Salt Lake Center
Mon 01:55:54 PM 46.3089 -103.6142 101° East 476 548 37,000 -48 Level Salt Lake Center
Mon 01:56:56 PM 46.3036 -103.4181 92° East 483 556 36,900  Descending Salt Lake Center
Mon 01:57:57 PM 46.2964 -103.2236 93° East 488 562 37,000 49 Climbing Salt Lake Center
Mon 01:58:59 PM 46.2842 -102.9925 94° East 488 562 37,000  Level Salt Lake Center
Mon 02:00:00 PM 46.2756 -102.8003 94° East 485 558 37,000  Level Salt Lake Center
Mon 02:01:09 PM 46.2647 -102.6133 95° East 481 554 37,000  Level Minneapolis Center
Mon 02:02:10 PM 46.2531 -102.3806 94° East 485 558 37,000  Level Minneapolis Center
Mon 02:03:12 PM 46.2425 -102.1858 94° East 487 560 37,000  Level Minneapolis Center
Mon 02:04:14 PM 46.2325 -101.9906 94° East 489 563 37,000  Level Minneapolis Center
Mon 02:05:16 PM 46.2183 -101.7761 95° East 485 558 37,000  Level Minneapolis Center
Mon 02:06:17 PM 46.2058 -101.5819 95° East 485 558 37,000  Level Minneapolis Center
Mon 02:07:20 PM 46.1936 -101.3856 95° East 488 562 37,000  Level Minneapolis Center
Mon 02:08:21 PM 46.1814 -101.1897 95° East 489 563 37,000  Level Minneapolis Center
Mon 02:09:23 PM 46.1692 -100.9919 95° East 492 566 37,000  Level Minneapolis Center
Mon 02:10:25 PM 46.1547 -100.7944 96° East 493 567 37,000  Level Minneapolis Center
Mon 02:11:27 PM 46.1417 -100.5972 95° East 493 567 37,000  Level Minneapolis Center
Mon 02:12:29 PM 46.1267 -100.4000 96° East 493 567 37,000  Level Minneapolis Center
Mon 02:13:31 PM 46.1092 -100.1617 96° East 496 571 37,000  Level Minneapolis Center
Mon 02:14:32 PM 46.0931 -99.9650 97° East 494 568 37,000  Level Minneapolis Center
Mon 02:15:34 PM 46.0783 -99.7669 96° East 494 568 37,000  Level Minneapolis Center
Mon 02:16:36 PM 46.0631 -99.5689 96° East 495 570 37,000  Level Minneapolis Center
Mon 02:17:38 PM 46.0472 -99.3728 97° East 494 568 37,000  Level Minneapolis Center
Mon 02:18:40 PM 46.0319 -99.1728 96° East 497 572 37,000  Level Minneapolis Center
Mon 02:19:42 PM 46.0147 -98.9739 97° East 499 574 37,000  Level Minneapolis Center
Mon 02:20:44 PM 45.9978 -98.7764 97° East 499 574 37,000  Level Minneapolis Center
Mon 02:21:46 PM 45.9778 -98.5408 97° East 495 570 37,000  Level Minneapolis Center
Mon 02:22:47 PM 45.9592 -98.3433 98° East 496 571 37,000  Level Minneapolis Center
Mon 02:23:49 PM 45.9408 -98.1456 98° East 499 574 37,000  Level Minneapolis Center
Mon 02:24:51 PM 45.9233 -97.9628 98° East 499 574 37,000  Level Minneapolis Center
Mon 02:25:53 PM 45.9044 -97.7667 98° East 499 574 37,000  Level Minneapolis Center
Mon 02:26:55 PM 45.8814 -97.5294 98° East 501 577 37,000  Level Minneapolis Center
Mon 02:27:57 PM 45.8636 -97.3531 98° East 503 579 37,000  Level Minneapolis Center
Mon 02:28:58 PM 45.8397 -97.1172 98° East 500 575 37,000  Level Minneapolis Center
Mon 02:30:00 PM 45.8183 -96.9200 99° East 501 577 37,000  Level Minneapolis Center
Mon 02:31:02 PM 45.7975 -96.7250 99° East 496 571 37,000  Level Minneapolis Center
Mon 02:32:04 PM 45.7769 -96.5278 98° East 500 575 37,000  Level Minneapolis Center
Mon 02:33:06 PM 45.7558 -96.3319 99° East 497 572 37,000  Level Minneapolis Center
Mon 02:34:08 PM 45.7350 -96.1364 99° East 497 572 37,000  Level Minneapolis Center
Mon 02:35:09 PM 45.7128 -95.9417 99° East 495 570 37,000  Level Minneapolis Center
Mon 02:36:11 PM 45.6864 -95.7083 99° East 496 571 37,000  Level Minneapolis Center
Mon 02:37:13 PM 45.6642 -95.5128 99° East 497 572 37,000  Level Minneapolis Center
Mon 02:38:15 PM 45.6403 -95.3181 100° East 497 572 37,000  Level Minneapolis Center
Mon 02:39:17 PM 45.6167 -95.1228 100° East 499 574 37,000  Level Minneapolis Center
Mon 02:40:19 PM 45.5933 -94.9258 100° East 498 573 37,000  Level Minneapolis Center
Mon 02:41:21 PM 45.5700 -94.7308 100° East 500 575 37,000  Level Minneapolis Center
Mon 02:42:23 PM 45.5458 -94.5361 100° East 501 577 37,000  Level Minneapolis Center
Mon 02:43:25 PM 45.5206 -94.3408 100° East 502 578 37,000  Level Minneapolis Center
Mon 02:44:26 PM 45.4903 -94.1064 100° East 503 579 37,000  Level Minneapolis Center
Mon 02:45:28 PM 45.4647 -93.9103 100° East 503 579 37,000  Level Minneapolis Center
Mon 02:46:30 PM 45.4386 -93.7142 101° East 504 580 37,000  Level Minneapolis Center
Mon 02:47:32 PM 45.4117 -93.5139 101° East 510 587 37,000  Level Minneapolis Center
Mon 02:48:34 PM 45.3833 -93.3117 101° East 516 594 37,000  Level Minneapolis Center
Mon 02:49:35 PM 45.3561 -93.1078 101° East 521 600 37,000  Level Minneapolis Center
Mon 02:50:37 PM 45.3272 -92.9036 101° East 524 603 37,000  Level Minneapolis Center
Mon 02:51:39 PM 45.2919 -92.6586 101° East 526 605 37,000  Level Minneapolis Center
Mon 02:52:41 PM 45.2628 -92.4558 101° East 526 605 37,000  Level Minneapolis Center
Mon 02:53:42 PM 45.2336 -92.2528 101° East 525 604 37,000  Level Minneapolis Center
Mon 02:54:44 PM 45.2025 -92.0492 102° East 528 608 37,000  Level Minneapolis Center
Mon 02:55:46 PM 45.1703 -91.8464 103° East 528 608 37,000  Level Minneapolis Center
Mon 02:56:48 PM 45.1408 -91.6431 102° East 530 610 37,000  Level Minneapolis Center
Mon 02:57:49 PM 45.1036 -91.4106 103° East 529 609 37,000  Level Minneapolis Center
Mon 02:58:51 PM 45.0700 -91.2008 103° East 523 602 37,000  Level Minneapolis Center
Mon 02:59:53 PM 45.0403 -91.0083 102° East 522 601 37,000  Level Minneapolis Center
Mon 03:00:56 PM 45.0119 -90.8225 102° East 519 597 37,000  Level Minneapolis Center
Mon 03:01:57 PM 44.9733 -90.5828 103° East 523 602 37,000  Level Minneapolis Center
Mon 03:02:59 PM 44.9408 -90.3836 103° East 524 603 37,000  Level Minneapolis Center
Mon 03:04:01 PM 44.9069 -90.1817 103° East 530 610 37,000  Level Minneapolis Center
Mon 03:05:02 PM 44.8731 -89.9808 103° East 530 610 37,000  Level Minneapolis Center
Mon 03:06:04 PM 44.8356 -89.7578 103° East 526 605 37,000  Level Minneapolis Center
Mon 03:07:05 PM 44.8006 -89.5575 104° East 526 605 37,000  Level Minneapolis Center
Mon 03:08:07 PM 44.7650 -89.3533 104° East 533 613 37,000  Level Minneapolis Center
Mon 03:09:09 PM 44.7289 -89.1522 104° East 530 610 37,000  Level Minneapolis Center
Mon 03:10:10 PM 44.6933 -88.9511 104° East 529 609 37,000  Level Minneapolis Center
Mon 03:11:12 PM 44.6572 -88.7492 104° East 531 611 37,000  Level Minneapolis Center
Mon 03:12:13 PM 44.6203 -88.5489 104° East 529 609 37,000  Level Minneapolis Center
Mon 03:13:15 PM 44.5839 -88.3461 104° East 532 612 37,000  Level Minneapolis Center
Mon 03:14:16 PM 44.5219 -88.1281 112° Southeast 517 595 37,000  Level Minneapolis Center
Mon 03:15:18 PM 44.4394 -87.9675 126° Southeast 509 586 37,000  Level Minneapolis Center
Mon 03:16:20 PM 44.3569 -87.8089 126° Southeast 505 581 37,000  Level Minneapolis Center
Mon 03:17:21 PM 44.2761 -87.6511 126° Southeast 501 577 37,000 -585 Level Minneapolis Center
Mon 03:18:23 PM 44.1947 -87.4958 126° Southeast 496 571 35,800 -1,220 Descending Minneapolis Center
Mon 03:19:24 PM 44.1108 -87.3356 126° Southeast 502 578 34,500 -1,268 Descending Minneapolis Center
Mon 03:20:26 PM 44.0208 -87.1658 126° Southeast 518 596 33,200 -1,220 Descending Minneapolis Center
Mon 03:21:27 PM 43.9375 -87.0092 126° Southeast 512 589 32,000 -1,073 Descending Minneapolis Center
Mon 03:22:29 PM 43.8556 -86.8542 126° Southeast 501 577 31,000 -488 Descending Minneapolis Center
Mon 03:23:30 PM 43.7875 -86.6811 119° Southeast 519 597 31,000  Level Minneapolis Center
Mon 03:24:32 PM 43.7250 -86.4972 115° Southeast 528 608 31,000  Level Minneapolis Center
Mon 03:25:33 PM 43.6589 -86.3178 117° Southeast 523 602 31,000  Level Minneapolis Center
Mon 03:26:44 PM 43.5806 -86.1039 117° Southeast 520 598 31,000 -1,354 Level Chicago Center
Mon 03:28:48 PM 43.4353 -85.7156 117° Southeast 510 587 26,600 -2,032 Descending Chicago Center
Mon 03:29:50 PM 43.3717 -85.5472 117° Southeast 494 568 24,700 -1,610 Descending Chicago Center
Mon 03:30:51 PM 43.3092 -85.3844 118° Southeast 481 554 23,300 -936 Descending Chicago Center
Mon 03:31:39 PM 43.2581 -85.2503 118° Southeast 499 574 23,000 -167 Descending Cleveland Center
Mon 03:32:39 PM 43.2189 -85.0792 107° East 474 545 23,000  Level Cleveland Center
Mon 03:33:39 PM 43.1881 -84.9003 103° East 474 545 23,000 -800 Level Cleveland Center
Mon 03:34:39 PM 43.1550 -84.7272 105° East 474 545 21,400 -1,850 Descending Cleveland Center
Mon 03:35:39 PM 43.1192 -84.5597 106° East 463 533 19,300 -1,852 Descending Cleveland Center
Mon 03:36:00 PM 43.1203 -84.5297 87° East 452 520 18,900 -2,241 Descending Chicago Center
Mon 03:37:02 PM 43.0847 -84.3503 105° East 412 474 16,200 -2,242 Descending Chicago Center
Mon 03:37:39 PM 43.0678 -84.2808 108° East 406 467 15,200 -1,485 Descending Cleveland Center
Mon 03:38:39 PM 43.0408 -84.1456 105° East 382 440 13,800 -1,350 Descending Cleveland Center
Mon 03:39:39 PM 43.0139 -83.9992 104° East 369 425 12,500 -950 Descending Cleveland Center
Mon 03:40:39 PM 42.9906 -83.8758 104° East 349 402 11,900 -291 Descending Cleveland Center
Mon 03:41:22 PM 42.9569 -83.8117 126° Southeast 292 336 12,000 100 Climbing Cleveland Center
Mon 03:41:39 PM 42.9408 -83.7939 141° Southeast 301 346 12,000  Level Cleveland Center
Mon 03:42:11 PM 42.9014 -83.7803 166° South 283 326 12,000  Level Cleveland Center
Mon 03:42:39 PM 42.8667 -83.7531 150° Southeast 274 315 12,000 -98 Level Cleveland Center
Mon 03:43:12 PM 42.8236 -83.7339 162° South 288 331 11,900 -600 Descending Cleveland Center
Mon 03:43:39 PM 42.7928 -83.7125 153° Southeast 274 315 11,400 -1,475 Descending Cleveland Center
Mon 03:44:13 PM 42.7497 -83.6878 157° South 287 330 10,400 -1,700 Descending Cleveland Center
Mon 03:44:39 PM 42.7211 -83.6694 155° Southeast 281 323 9,700 -1,377 Descending Cleveland Center
Mon 03:45:14 PM 42.6781 -83.6419 155° Southeast 281 323 9,000 -1,254 Descending Cleveland Center
Mon 03:45:46 PM 42.6442 -83.6214 156° South 247 284 8,300 -1,375 Descending FAA TRACON SMA TRACON (SMA)
Mon 03:46:02 PM 42.6306 -83.6083 145° Southeast 242 278 7,900 -1,667 Descending FAA TRACON SMA TRACON (SMA)
Mon 03:46:22 PM 42.6186 -83.5786 119° Southeast 247 284 7,300 -1,317 Descending FAA TRACON SMA TRACON (SMA)
Mon 03:46:43 PM 42.6119 -83.5506 108° East 251 289 7,000 -900 Descending FAA TRACON SMA TRACON (SMA)
Mon 03:47:02 PM 42.6058 -83.5258 109° East 255 293 6,700 -900 Descending FAA TRACON SMA TRACON (SMA)
Mon 03:47:23 PM 42.5975 -83.4889 107° East 235 270 6,400 -750 Descending FAA TRACON SMA TRACON (SMA)
Mon 03:47:42 PM 42.5922 -83.4633 106° East 223 257 6,200 -600 Descending FAA TRACON SMA TRACON (SMA)
Mon 03:48:03 PM 42.5883 -83.4400 103° East 228 262 6,000 -293 Descending FAA TRACON SMA TRACON (SMA)
Mon 03:48:23 PM 42.5772 -83.4072 115° Southeast 212 244 6,000  Level FAA TRACON SMA TRACON (SMA)
Mon 03:48:43 PM 42.5661 -83.3869 127° Southeast 222 255 6,000  Level FAA TRACON SMA TRACON (SMA)
Mon 03:49:03 PM 42.5578 -83.3686 122° Southeast 222 255 6,000  Level FAA TRACON SMA TRACON (SMA)
Mon 03:49:23 PM 42.5422 -83.3403 127° Southeast 219 252 6,000 -150 Level FAA TRACON SMA TRACON (SMA)
Mon 03:49:43 PM 42.5297 -83.3208 131° Southeast 224 258 5,900 -750 Descending FAA TRACON SMA TRACON (SMA)
Mon 03:50:03 PM 42.5175 -83.3064 139° Southeast 202 232 5,500 -1,171 Descending FAA TRACON SMA TRACON (SMA)
Mon 03:50:24 PM 42.4975 -83.2867 144° Southeast 212 244 5,100 -1,024 Descending FAA TRACON SMA TRACON (SMA)
Mon 03:50:44 PM 42.4833 -83.2717 142° Southeast 209 241 4,800 -900 Descending FAA TRACON SMA TRACON (SMA)
Mon 03:51:04 PM 42.4664 -83.2542 143° Southeast 207 238 4,500 -900 Descending FAA TRACON SMA TRACON (SMA)
Mon 03:51:24 PM 42.4525 -83.2400 143° Southeast 205 236 4,200 -750 Descending FAA TRACON SMA TRACON (SMA)
Mon 03:51:44 PM 42.4353 -83.2347 167° South 176 203 4,000 -308 Descending FAA TRACON SMA TRACON (SMA)
Mon 03:52:03 PM 42.4222 -83.2353 182° South 154 177 4,000  Level FAA TRACON SMA TRACON (SMA)
Mon 03:52:23 PM 42.4069 -83.2361 182° South 152 175 4,000  Level FAA TRACON SMA TRACON (SMA)
Mon 03:52:43 PM 42.3936 -83.2364 181° South 150 173 4,000  Level FAA TRACON SMA TRACON (SMA)
Mon 03:53:03 PM 42.3783 -83.2372 182° South 144 166 4,000  Level FAA TRACON SMA TRACON (SMA)
Mon 03:53:23 PM 42.3664 -83.2378 182° South 147 169 4,000 -150 Level FAA TRACON SMA TRACON (SMA)
Mon 03:53:43 PM 42.3517 -83.2389 183° South 145 167 3,900 -750 Descending FAA TRACON SMA TRACON (SMA)
Mon 03:54:03 PM 42.3419 -83.2461 209° Southwest 147 169 3,500 -1,200 Descending FAA TRACON SMA TRACON (SMA)
Mon 03:54:23 PM 42.3283 -83.2547 205° Southwest 146 168 3,100 -1,050 Descending FAA TRACON SMA TRACON (SMA)
Mon 03:54:43 PM 42.3158 -83.2631 206° Southwest 141 162 2,800 -750 Descending FAA TRACON SMA TRACON (SMA)
Mon 03:55:03 PM 42.3053 -83.2711 209° Southwest 142 163 2,600 -750 Descending FAA TRACON SMA TRACON (SMA)
Mon 03:55:23 PM 42.2931 -83.2803 209° Southwest 140 161 2,300 -750 Descending FAA TRACON SMA TRACON (SMA)
Mon 03:55:43 PM 42.2828 -83.2875 207° Southwest 141 162 2,100 -600 Descending FAA TRACON SMA TRACON (SMA)
Mon 03:56:03 PM 42.2708 -83.2972 211° Southwest 134 154 1,900 -732 Descending FAA TRACON SMA TRACON (SMA)
Mon 03:56:24 PM 42.2597 -83.3044 206° Southwest 125 144 1,600 -732 Descending FAA TRACON SMA TRACON (SMA)
Mon 03:56:44 PM 42.2508 -83.3111 209° Southwest 122 140 1,400 -600 Descending FAA TRACON SMA TRACON (SMA)
Mon 03:57:04 PM 42.2406 -83.3189 209° Southwest 116 133 1,200 -600 Descending FAA TRACON SMA TRACON (SMA)
Mon 03:57:24 PM 42.2306 -83.3261 208° Southwest 118 136 1,000 -600 Descending FAA TRACON SMA TRACON (SMA)
Mon 03:57:44 PM 42.2219 -83.3325 209° Southwest 125 144 800 -600 Descending FAA TRACON SMA TRACON (SMA)

Login

Don't have an account? Register now (free) for customized features, flight alerts, and more!